createdAt,value
2022-08-05T00:00:16.126Z,5.18
2022-08-05T00:02:51.631Z,4.85
2022-08-05T00:06:02.008Z,9.23
2022-08-05T00:08:35.216Z,8.43
2022-08-05T00:10:56.045Z,6.18
2022-08-05T00:13:38.101Z,9.82
2022-08-05T00:16:08.499Z,4.93
2022-08-05T00:18:36.115Z,8.73
2022-08-05T00:21:05.220Z,12.02
2022-08-05T00:23:46.556Z,7.88
2022-08-05T00:26:21.006Z,7.00
2022-08-05T00:28:49.283Z,4.40
2022-08-05T00:31:16.313Z,5.65
2022-08-05T00:34:55.636Z,8.10
2022-08-05T00:37:11.069Z,12.95
2022-08-05T00:39:16.139Z,15.07
2022-08-05T00:41:51.750Z,10.85
2022-08-05T00:44:19.035Z,11.48
2022-08-05T00:46:54.093Z,12.75
2022-08-05T00:49:44.739Z,10.27
2022-08-05T00:52:18.855Z,14.75
2022-08-05T00:54:58.322Z,10.27
2022-08-05T00:57:25.406Z,9.85
2022-08-05T00:59:58.489Z,8.98
2022-08-05T01:02:25.044Z,9.43
2022-08-05T01:04:51.817Z,14.35
2022-08-05T01:07:18.395Z,10.25
2022-08-05T01:09:47.372Z,10.30
2022-08-05T01:12:25.116Z,12.60
2022-08-05T01:15:03.903Z,10.68
2022-08-05T01:17:53.755Z,9.73
2022-08-05T01:20:39.692Z,12.25
2022-08-05T01:23:35.532Z,10.07
2022-08-05T01:26:29.614Z,12.18
2022-08-05T01:29:04.319Z,8.90
2022-08-05T01:31:45.225Z,7.55
2022-08-05T01:34:26.880Z,8.13
2022-08-05T01:37:09.563Z,8.73
2022-08-05T01:39:47.837Z,11.43
2022-08-05T01:42:17.288Z,7.47
2022-08-05T01:44:54.092Z,12.90
2022-08-05T01:47:23.947Z,16.85
2022-08-05T01:50:01.960Z,16.35
2022-08-05T01:52:32.252Z,11.60
2022-08-05T01:55:04.487Z,12.50
2022-08-05T01:58:10.810Z,11.32
2022-08-05T02:00:21.184Z,10.10
2022-08-05T02:03:23.992Z,9.70
2022-08-05T02:05:58.016Z,9.50
2022-08-05T02:08:31.031Z,13.20
2022-08-05T02:11:05.236Z,11.48
2022-08-05T02:13:53.466Z,9.02
2022-08-05T02:16:29.133Z,13.15
2022-08-05T02:19:19.609Z,11.88
2022-08-05T02:22:25.939Z,13.90
2022-08-05T02:25:04.841Z,13.32
2022-08-05T02:27:58.082Z,12.13
2022-08-05T02:30:27.835Z,11.90
2022-08-05T02:32:58.981Z,13.30
2022-08-05T02:35:33.274Z,13.65
2022-08-05T02:38:09.312Z,14.98
2022-08-05T02:40:40.950Z,14.52
2022-08-05T02:43:09.461Z,14.88
2022-08-05T02:45:52.764Z,13.73
2022-08-05T02:48:29.527Z,16.80
2022-08-05T02:50:59.957Z,13.05
2022-08-05T02:53:29.156Z,12.50
2022-08-05T02:56:08.404Z,14.23
2022-08-05T02:58:43.729Z,12.48
2022-08-05T03:01:15.414Z,11.18
2022-08-05T03:04:02.968Z,13.98
2022-08-05T03:06:56.563Z,14.32
2022-08-05T03:09:18.050Z,12.02
2022-08-05T03:12:22.569Z,14.50
2022-08-05T03:14:49.127Z,11.13
2022-08-05T03:17:15.661Z,15.70
2022-08-05T03:19:42.343Z,10.95
2022-08-05T03:22:16.252Z,13.20
2022-08-05T03:24:47.293Z,12.23
2022-08-05T03:27:18.589Z,11.27
2022-08-05T03:30:07.278Z,12.52
2022-08-05T03:32:32.113Z,15.20
2022-08-05T03:35:00.779Z,16.77
2022-08-05T03:37:27.646Z,16.77
2022-08-05T03:40:01.896Z,10.32
2022-08-05T03:42:32.281Z,13.45
2022-08-05T03:44:59.808Z,8.73
2022-08-05T03:47:30.505Z,12.80
2022-08-05T03:50:01.905Z,8.23
2022-08-05T03:52:38.672Z,9.13
2022-08-05T03:56:05.995Z,7.75
2022-08-05T03:58:17.873Z,11.85
2022-08-05T04:00:51.410Z,7.32
2022-08-05T04:03:28.412Z,10.63
2022-08-05T04:05:59.199Z,10.93
2022-08-05T04:08:35.105Z,9.95
2022-08-05T04:11:07.405Z,9.77
2022-08-05T04:13:49.850Z,6.28
2022-08-05T04:16:25.113Z,6.15
2022-08-05T04:18:54.384Z,12.75
2022-08-05T04:22:10.079Z,12.82
2022-08-05T04:24:18.741Z,7.30
2022-08-05T04:26:46.581Z,4.72
2022-08-05T04:29:13.247Z,4.03
2022-08-05T04:31:41.031Z,4.13
2022-08-05T04:34:18.526Z,7.95
2022-08-05T04:36:50.116Z,7.18
2022-08-05T04:39:18.362Z,6.05
2022-08-05T04:41:45.827Z,5.28
2022-08-05T04:44:14.809Z,8.23
2022-08-05T04:46:47.656Z,4.90
2022-08-05T04:49:15.231Z,10.45
2022-08-05T04:51:44.033Z,8.23
2022-08-05T04:54:11.993Z,8.15
2022-08-05T04:56:39.145Z,6.80
2022-08-05T04:59:22.950Z,7.90
2022-08-05T05:02:08.338Z,6.40
2022-08-05T05:04:43.867Z,7.90
2022-08-05T05:07:11.629Z,8.27
2022-08-05T05:09:42.361Z,9.57
2022-08-05T05:12:11.697Z,5.05
2022-08-05T05:14:38.376Z,7.35
2022-08-05T05:17:22.755Z,9.07
2022-08-05T05:19:50.236Z,11.07
2022-08-05T05:22:23.839Z,8.13
2022-08-05T05:24:58.859Z,9.30
2022-08-05T05:27:44.499Z,9.13
2022-08-05T05:30:29.644Z,9.10
2022-08-05T05:33:00.368Z,13.27
2022-08-05T05:35:29.126Z,11.85
2022-08-05T05:38:03.420Z,9.82
2022-08-05T05:40:34.338Z,9.48
2022-08-05T05:43:02.173Z,9.43
2022-08-05T05:45:29.211Z,4.97
2022-08-05T05:48:05.438Z,8.73
2022-08-05T05:50:41.323Z,5.30
2022-08-05T05:53:22.147Z,11.23
2022-08-05T05:55:51.425Z,7.07
2022-08-05T05:58:30.390Z,7.82
2022-08-05T06:04:00.833Z,6.22
2022-08-05T06:06:33.025Z,5.32
2022-08-05T06:09:00.060Z,7.60
2022-08-05T06:11:28.938Z,10.02
2022-08-05T06:13:55.956Z,6.85
2022-08-05T06:16:28.597Z,7.03
2022-08-05T06:19:00.916Z,6.07
2022-08-05T06:21:36.921Z,6.05
2022-08-05T06:24:07.672Z,6.22
2022-08-05T06:26:40.057Z,8.25
2022-08-05T06:29:25.490Z,7.63
2022-08-05T06:32:05.522Z,5.60
2022-08-05T06:34:48.266Z,8.48
2022-08-05T06:37:56.014Z,6.45
2022-08-05T06:40:07.488Z,5.75
2022-08-05T06:42:34.042Z,5.40
2022-08-05T06:45:00.592Z,6.72
2022-08-05T06:48:44.294Z,4.88
2022-08-05T06:50:18.952Z,7.40
2022-08-05T06:53:03.515Z,8.60
2022-08-05T06:55:36.607Z,12.80
2022-08-05T06:58:29.565Z,6.40
2022-08-05T07:00:50.847Z,6.55
2022-08-05T07:03:17.958Z,6.97
2022-08-05T07:05:46.259Z,7.25
2022-08-05T07:08:13.519Z,6.53
2022-08-05T07:10:52.798Z,5.90
2022-08-05T07:13:58.548Z,7.50
2022-08-05T07:18:00.458Z,7.65
2022-08-05T07:20:23.040Z,6.60
2022-08-05T07:22:17.679Z,8.32
2022-08-05T07:24:52.719Z,7.72
2022-08-05T07:27:20.326Z,6.53
2022-08-05T07:30:28.053Z,7.65
2022-08-05T07:32:38.393Z,10.15
2022-08-05T07:35:56.723Z,9.30
2022-08-05T07:37:56.199Z,14.13
2022-08-05T07:40:32.243Z,8.75
2022-08-05T07:42:59.894Z,10.30
2022-08-05T07:45:57.059Z,11.45
2022-08-05T07:49:02.031Z,10.77
2022-08-05T07:51:08.612Z,10.82
2022-08-05T07:53:51.675Z,9.85
2022-08-05T07:56:59.828Z,9.57
2022-08-05T07:59:05.149Z,9.68
2022-08-05T08:01:41.676Z,9.43
2022-08-05T08:04:23.028Z,10.82
2022-08-05T08:07:05.610Z,7.25
2022-08-05T08:09:33.856Z,8.35
2022-08-05T08:12:09.346Z,6.80
2022-08-05T08:14:38.017Z,9.10
2022-08-05T08:17:15.736Z,10.18
2022-08-05T08:20:21.924Z,10.07
2022-08-05T08:22:32.360Z,10.07
2022-08-05T08:25:03.182Z,8.23
2022-08-05T08:27:47.911Z,9.50
2022-08-05T08:30:33.954Z,8.48
2022-08-05T08:33:13.909Z,7.45
2022-08-05T08:35:53.778Z,9.73
2022-08-05T08:38:35.454Z,7.05
2022-08-05T08:41:09.615Z,7.95
2022-08-05T08:44:57.933Z,7.82
2022-08-05T08:46:28.532Z,6.40
2022-08-05T08:49:07.751Z,6.82
2022-08-05T08:52:03.909Z,8.10
2022-08-05T08:54:33.836Z,6.70
2022-08-05T08:57:11.588Z,7.47
2022-08-05T08:59:41.825Z,6.93
2022-08-05T09:02:14.642Z,10.32
2022-08-05T09:04:57.867Z,10.15
2022-08-05T09:07:39.494Z,10.13
2022-08-05T09:10:27.842Z,9.15
2022-08-05T09:12:57.741Z,8.23
2022-08-05T09:15:31.873Z,6.13
2022-08-05T09:18:06.325Z,7.47
2022-08-05T09:20:37.712Z,9.50
2022-08-05T09:23:18.794Z,6.10
2022-08-05T09:28:32.329Z,6.47
2022-08-05T09:31:23.213Z,9.30
2022-08-05T09:36:27.324Z,5.53
2022-08-05T09:39:02.533Z,7.78
2022-08-05T09:41:33.142Z,8.45
2022-08-05T09:44:05.053Z,11.23
2022-08-05T09:46:35.040Z,6.65
2022-08-05T09:49:19.095Z,5.50
2022-08-05T09:51:49.915Z,7.10
2022-08-05T09:54:21.417Z,10.00
2022-08-05T09:56:57.565Z,7.88
2022-08-05T09:59:28.046Z,8.80
2022-08-05T10:01:57.826Z,9.30
2022-08-05T10:04:36.028Z,11.40
2022-08-05T10:07:21.052Z,10.48
2022-08-05T10:10:13.972Z,10.30
2022-08-05T10:12:51.795Z,10.20
2022-08-05T10:15:34.393Z,10.18
2022-08-05T10:18:11.912Z,10.60
2022-08-05T10:20:48.743Z,12.40
2022-08-05T10:23:33.980Z,8.88
2022-08-05T10:26:14.044Z,13.65
2022-08-05T10:28:46.554Z,8.35
2022-08-05T10:32:51.847Z,9.38
2022-08-05T10:34:02.517Z,14.43
2022-08-05T10:36:30.704Z,14.38
2022-08-05T10:39:10.361Z,12.25
2022-08-05T10:42:03.342Z,15.02
2022-08-05T10:44:32.333Z,14.15
2022-08-05T10:46:59.237Z,15.07
2022-08-05T10:49:33.026Z,14.80
2022-08-05T10:52:03.250Z,13.85
2022-08-05T10:55:03.258Z,18.98
2022-08-05T10:57:32.113Z,21.48
2022-08-05T11:00:20.488Z,17.80
2022-08-05T11:03:25.599Z,15.70
2022-08-05T11:06:15.888Z,15.30
2022-08-05T11:09:24.261Z,16.08
2022-08-05T11:12:26.392Z,16.50
2022-08-05T11:15:20.143Z,17.15
2022-08-05T11:17:59.346Z,18.83
2022-08-05T11:20:46.480Z,20.48
2022-08-05T11:23:25.931Z,21.25
2022-08-05T11:26:28.101Z,22.70
2022-08-05T11:28:56.572Z,23.88
2022-08-05T11:31:56.713Z,21.08
2022-08-05T11:34:21.177Z,22.15
2022-08-05T11:36:53.246Z,24.60
2022-08-05T11:39:49.253Z,23.67
2022-08-05T11:42:27.967Z,28.83
2022-08-05T11:45:03.007Z,32.90
2022-08-05T11:47:49.701Z,38.42
2022-08-05T11:50:17.688Z,28.15
2022-08-05T11:52:46.077Z,31.35
2022-08-05T11:55:15.445Z,29.23
2022-08-05T11:58:10.289Z,28.63
2022-08-05T12:00:38.461Z,25.58
2022-08-05T12:03:28.710Z,27.75
2022-08-05T12:06:03.147Z,36.88
2022-08-05T12:08:33.189Z,41.47
2022-08-05T12:11:06.107Z,49.05
2022-08-05T12:13:49.496Z,45.17
2022-08-05T12:16:19.241Z,39.78
2022-08-05T12:18:49.623Z,39.60
2022-08-05T12:21:32.864Z,41.40
2022-08-05T12:24:09.168Z,37.28
2022-08-05T12:26:38.923Z,35.63
2022-08-05T12:29:09.508Z,34.72
2022-08-05T12:31:44.903Z,32.40
2022-08-05T12:34:20.500Z,33.13
2022-08-05T12:36:49.798Z,26.50
2022-08-05T12:39:17.671Z,24.30
2022-08-05T12:41:48.697Z,19.42
2022-08-05T12:44:21.611Z,12.25
2022-08-05T12:46:59.657Z,11.63
2022-08-05T12:50:03.897Z,11.60
2022-08-05T12:52:39.072Z,12.95
2022-08-05T12:55:25.643Z,11.70
2022-08-05T12:58:49.985Z,7.75
2022-08-05T13:02:00.690Z,8.52
2022-08-05T13:03:45.415Z,8.10
2022-08-05T13:06:14.434Z,5.80
2022-08-05T13:08:50.861Z,7.30
2022-08-05T13:11:25.458Z,7.68
2022-08-05T13:14:36.289Z,7.68
2022-08-05T13:17:08.315Z,7.70
2022-08-05T13:19:51.808Z,8.52
2022-08-05T13:22:29.590Z,6.53
2022-08-05T13:25:05.203Z,6.22
2022-08-05T13:27:35.605Z,7.50
2022-08-05T13:30:35.781Z,6.93
2022-08-05T13:35:43.250Z,7.50
2022-08-05T13:38:28.328Z,8.27
2022-08-05T13:41:01.961Z,5.53
2022-08-05T13:43:43.368Z,7.28
2022-08-05T13:46:13.784Z,5.07
2022-08-05T13:48:57.993Z,5.35
2022-08-05T13:51:36.525Z,4.47
2022-08-05T13:54:11.866Z,6.15
2022-08-05T13:56:44.923Z,6.70
2022-08-05T13:59:27.461Z,8.20
2022-08-05T14:02:00.329Z,7.93
2022-08-05T14:04:57.184Z,5.07
2022-08-05T14:07:59.845Z,7.03
2022-08-05T14:10:28.052Z,6.10
2022-08-05T14:12:57.099Z,10.57
2022-08-05T14:16:06.161Z,7.65
2022-08-05T14:18:17.797Z,4.82
2022-08-05T14:20:47.999Z,13.37
2022-08-05T14:23:23.432Z,7.10
2022-08-05T14:25:54.127Z,7.88
2022-08-05T14:28:26.245Z,7.72
2022-08-05T14:30:54.317Z,9.23
2022-08-05T14:33:22.612Z,10.00
2022-08-05T14:35:51.783Z,8.98
2022-08-05T14:38:31.788Z,11.95
2022-08-05T14:41:01.369Z,6.38
2022-08-05T14:43:59.629Z,5.10
2022-08-05T14:46:14.526Z,8.85
2022-08-05T14:48:41.468Z,5.68
2022-08-05T14:51:09.365Z,4.97
2022-08-05T14:53:44.662Z,5.25
2022-08-05T14:56:11.871Z,8.23
2022-08-05T14:58:47.610Z,5.75
2022-08-05T15:01:47.105Z,6.00
2022-08-05T15:04:11.515Z,5.25
2022-08-05T15:06:38.879Z,4.13
2022-08-05T15:09:07.156Z,3.10
2022-08-05T15:11:51.885Z,3.00
2022-08-05T15:14:35.862Z,5.55
2022-08-05T15:17:09.962Z,5.57
2022-08-05T15:19:55.453Z,3.70
2022-08-05T15:22:22.202Z,3.45
2022-08-05T15:24:54.220Z,5.90
2022-08-05T15:27:20.763Z,5.53
2022-08-05T15:29:47.366Z,5.00
2022-08-05T15:32:16.458Z,3.97
2022-08-05T15:34:43.352Z,5.82
2022-08-05T15:37:14.707Z,4.72
2022-08-05T15:41:04.793Z,13.95
2022-08-05T15:42:56.641Z,4.80
2022-08-05T15:45:16.869Z,3.75
2022-08-05T15:47:45.854Z,5.68
2022-08-05T15:50:15.234Z,6.45
2022-08-05T15:52:53.912Z,4.20
2022-08-05T15:55:25.094Z,4.03
2022-08-05T15:58:08.729Z,7.65
2022-08-05T16:00:50.970Z,5.65
2022-08-05T16:03:21.961Z,5.47
2022-08-05T16:05:52.584Z,5.03
2022-08-05T16:08:19.407Z,3.43
2022-08-05T16:10:46.070Z,3.78
2022-08-05T16:13:19.319Z,5.82
2022-08-05T16:15:51.808Z,3.33
2022-08-05T16:18:18.765Z,3.47
2022-08-05T16:20:46.313Z,4.68
2022-08-05T16:23:12.946Z,5.35
2022-08-05T16:25:40.096Z,6.10
2022-08-05T16:28:09.811Z,4.07
2022-08-05T16:30:37.714Z,4.75
2022-08-05T16:33:04.431Z,7.53
2022-08-05T16:35:33.777Z,5.47
2022-08-05T16:38:23.969Z,7.82
2022-08-05T16:40:59.527Z,4.78
2022-08-05T16:43:33.191Z,5.85
2022-08-05T16:46:05.335Z,4.40
2022-08-05T16:48:35.439Z,5.28
2022-08-05T16:51:02.568Z,5.63
2022-08-05T16:54:04.955Z,3.95
2022-08-05T16:56:22.731Z,5.45
2022-08-05T16:58:50.284Z,4.25
2022-08-05T17:01:17.007Z,5.03
2022-08-05T17:03:45.690Z,5.93
2022-08-05T17:06:12.854Z,5.75
2022-08-05T17:08:53.061Z,3.90
2022-08-05T17:11:20.378Z,4.57
2022-08-05T17:13:50.798Z,6.78
2022-08-05T17:16:32.782Z,3.20
2022-08-05T17:19:00.862Z,5.43
2022-08-05T17:21:35.458Z,3.45
2022-08-05T17:24:05.887Z,4.10
2022-08-05T17:26:47.148Z,3.83
2022-08-05T17:29:14.453Z,5.03
2022-08-05T17:31:41.258Z,4.50
2022-08-05T17:34:30.138Z,5.75
2022-08-05T17:37:00.151Z,6.28
2022-08-05T17:39:34.108Z,5.18
2022-08-05T17:42:18.439Z,4.82
2022-08-05T17:44:50.428Z,5.60
2022-08-05T17:47:21.994Z,3.33
2022-08-05T17:49:59.597Z,3.70
2022-08-05T17:54:57.842Z,5.85
2022-08-05T17:57:24.522Z,5.68
2022-08-05T18:00:04.805Z,6.80
2022-08-05T18:02:34.093Z,5.32
2022-08-05T18:05:07.649Z,4.10
2022-08-05T18:07:41.924Z,3.25
2022-08-05T18:10:11.591Z,4.65
2022-08-05T18:12:47.451Z,4.60
2022-08-05T18:15:14.250Z,3.67
2022-08-05T18:17:58.994Z,4.07
2022-08-05T18:20:29.208Z,2.75
2022-08-05T18:22:58.709Z,5.33
2022-08-05T18:25:32.900Z,4.05
2022-08-05T18:27:59.950Z,2.75
2022-08-05T18:30:33.122Z,4.28
2022-08-05T18:33:00.341Z,4.65
2022-08-05T18:36:00.553Z,4.03
2022-08-05T18:38:16.571Z,5.65
2022-08-05T18:41:58.150Z,3.15
2022-08-05T18:43:38.118Z,5.82
2022-08-05T18:46:09.736Z,6.28
2022-08-05T18:48:41.322Z,5.10
2022-08-05T18:52:06.205Z,6.60
2022-08-05T18:54:14.059Z,9.52
2022-08-05T18:56:40.646Z,3.58
2022-08-05T18:59:43.586Z,4.40
2022-08-05T19:01:56.830Z,4.43
2022-08-05T19:04:24.519Z,2.78
2022-08-05T19:06:51.635Z,4.85
2022-08-05T19:09:20.303Z,10.05
2022-08-05T19:12:00.262Z,6.07
2022-08-05T19:14:59.517Z,6.63
2022-08-05T19:17:15.326Z,10.98
2022-08-05T19:19:46.875Z,4.05
2022-08-05T19:22:17.170Z,4.03
2022-08-05T19:24:54.366Z,3.30
2022-08-05T19:27:24.101Z,6.78
2022-08-05T19:29:57.113Z,4.22
2022-08-05T19:32:26.203Z,2.85
2022-08-05T19:34:55.207Z,6.10
2022-08-05T19:37:29.761Z,3.65
2022-08-05T19:40:02.140Z,4.80
2022-08-05T19:42:35.424Z,5.22
2022-08-05T19:45:06.027Z,5.45
2022-08-05T19:47:33.975Z,4.95
2022-08-05T19:50:01.115Z,6.15
2022-08-05T19:52:30.857Z,7.75
2022-08-05T19:55:00.450Z,4.32
2022-08-05T19:57:47.428Z,5.43
2022-08-05T20:00:20.752Z,7.03
2022-08-05T20:02:47.494Z,3.65
2022-08-05T20:05:16.613Z,4.95
2022-08-05T20:07:57.804Z,2.08
2022-08-05T20:10:25.614Z,2.00
2022-08-05T20:12:52.405Z,1.75
2022-08-05T20:15:48.043Z,4.70
2022-08-05T20:18:32.636Z,5.00
2022-08-05T20:21:00.064Z,6.70
2022-08-05T20:23:39.620Z,1.67
2022-08-05T20:26:16.340Z,1.75
2022-08-05T20:28:45.692Z,7.32
2022-08-05T20:31:12.778Z,1.35
2022-08-05T20:33:42.302Z,2.42
2022-08-05T20:36:10.189Z,3.90
2022-08-05T20:38:38.138Z,5.88
2022-08-05T20:41:24.259Z,4.97
2022-08-05T20:43:59.208Z,2.75
2022-08-05T20:46:29.421Z,2.15
2022-08-05T20:48:56.238Z,4.28
2022-08-05T20:51:25.792Z,7.03
2022-08-05T20:54:01.275Z,2.65
2022-08-05T20:56:31.870Z,2.72
2022-08-05T20:59:14.068Z,2.90
2022-08-05T21:01:51.656Z,2.55
2022-08-05T21:04:22.362Z,4.10
2022-08-05T21:06:53.868Z,4.78
2022-08-05T21:09:26.040Z,3.08
2022-08-05T21:12:09.703Z,2.40
2022-08-05T21:14:38.725Z,2.92
2022-08-05T21:17:06.102Z,1.58
2022-08-05T21:19:47.288Z,2.17
2022-08-05T21:22:14.659Z,1.55
2022-08-05T21:24:48.742Z,2.92
2022-08-05T21:27:16.021Z,3.35
2022-08-05T21:29:43.436Z,3.83
2022-08-05T21:32:18.401Z,1.75
2022-08-05T21:34:55.953Z,3.65
2022-08-05T21:37:33.434Z,1.88
2022-08-05T21:40:05.745Z,4.68
2022-08-05T21:42:44.319Z,2.97
2022-08-05T21:45:11.666Z,1.27
2022-08-05T21:47:57.111Z,3.00
2022-08-05T21:50:28.014Z,1.95
2022-08-05T21:52:58.878Z,3.55
2022-08-05T21:56:01.562Z,2.63
2022-08-05T21:58:17.509Z,1.95
2022-08-05T22:00:51.269Z,3.35
2022-08-05T22:03:48.711Z,2.60
2022-08-05T22:06:13.318Z,1.38
2022-08-05T22:08:42.613Z,3.85
2022-08-05T22:11:12.050Z,4.05
2022-08-05T22:14:32.558Z,3.35
2022-08-05T22:16:50.861Z,5.63
2022-08-05T22:20:01.229Z,3.33
2022-08-05T22:22:04.927Z,2.65
2022-08-05T22:24:52.366Z,1.13
2022-08-05T22:28:09.415Z,3.90
2022-08-05T22:30:25.002Z,3.58
2022-08-05T22:32:59.116Z,3.47
2022-08-05T22:35:25.899Z,5.85
2022-08-05T22:37:59.592Z,2.45
2022-08-05T22:40:27.087Z,2.65
2022-08-05T22:42:59.806Z,2.70
2022-08-05T22:45:26.958Z,3.33
2022-08-05T22:47:57.546Z,5.70
2022-08-05T22:50:26.865Z,2.03
2022-08-05T22:52:58.224Z,3.63
2022-08-05T22:55:25.930Z,5.97
2022-08-05T22:57:55.026Z,3.45
2022-08-05T23:00:23.674Z,2.70
2022-08-05T23:02:53.149Z,3.03
2022-08-05T23:05:21.970Z,4.55
2022-08-05T23:07:52.558Z,2.85
2022-08-05T23:10:20.830Z,3.05
2022-08-05T23:12:51.244Z,1.85
2022-08-05T23:15:18.451Z,5.18
2022-08-05T23:18:01.376Z,3.65
2022-08-05T23:20:31.069Z,2.83
2022-08-05T23:22:58.663Z,7.03
2022-08-05T23:25:51.955Z,3.03
2022-08-05T23:28:13.090Z,6.22
2022-08-05T23:30:43.470Z,3.95
2022-08-05T23:33:16.470Z,4.22
2022-08-05T23:35:50.179Z,2.40
2022-08-05T23:38:20.030Z,2.08
2022-08-05T23:40:50.584Z,3.80
2022-08-05T23:43:25.815Z,1.80
2022-08-05T23:46:05.317Z,4.28
2022-08-05T23:49:00.746Z,1.77
2022-08-05T23:51:53.940Z,5.82
2022-08-05T23:54:36.471Z,1.80
2022-08-05T23:57:06.950Z,3.70
